Time;durP1;ratioP1;P1;durP2;ratioP2;P2;SDS_P1;SDS_P2;PMS_P1;PMS_P2;Temp;Humidity;BMP_temperature;BMP_pressure;BME280_temperature;BME280_humidity;BME280_pressure;Samples;Min_cycle;Max_cycle;Signal;HPM_P1;HPM_P2
2021/08/23 00:01:54;;;;;;;;;;;;;;;19.53;63.64;101070.97;5117636;28;1008;-46
2021/08/23 00:04:20;;;;;;;;;;;;;;;20.34;62.91;101077.75;5117706;28;807;-49
2021/08/23 00:06:45;;;;;;;;;;;;;;;20.49;62.31;101079.50;5117316;28;1120;-46
2021/08/23 00:09:11;;;;;;;;;;;;;;;19.98;63.57;101069.00;5117176;28;751;-54
2021/08/23 00:11:36;;;;;;;;;;;;;;;19.55;65.61;101071.50;5117377;28;823;-46
2021/08/23 00:14:02;;;;;;;;;;;;;;;19.49;64.04;101068.78;5116986;28;843;-56
2021/08/23 00:16:27;;;;;;;;;;;;;;;18.89;61.72;101073.53;5117035;28;954;-53
2021/08/23 00:18:53;;;;;;;;;;;;;;;19.31;61.63;101073.03;5117134;28;935;-48
2021/08/23 00:21:23;;;;;;;;;;;;;;;19.58;62.79;101076.44;5117002;28;1972;-59
2021/08/23 00:24:05;;;;;;;;;;;;;;;19.93;61.50;101071.78;5116992;28;814;-60
2021/08/23 00:26:31;;;;;;;;;;;;;;;19.96;59.85;101065.69;5116604;28;800;-60
2021/08/23 00:28:57;;;;;;;;;;;;;;;19.66;59.98;101065.63;5117266;28;790;-60
2021/08/23 00:31:22;;;;;;;;;;;;;;;19.53;59.60;101065.44;5116668;28;942;-57
2021/08/23 00:33:47;;;;;;;;;;;;;;;19.70;58.99;101074.16;5116971;28;802;-59
2021/08/23 00:36:13;;;;;;;;;;;;;;;19.75;58.47;101071.34;5117659;28;805;-59
2021/08/23 00:38:38;;;;;;;;;;;;;;;19.75;58.18;101068.56;5116703;28;811;-54
2021/08/23 00:41:04;;;;;;;;;;;;;;;19.77;58.11;101069.13;5116531;28;1977;-54
2021/08/23 00:43:29;;;;;;;;;;;;;;;19.65;58.26;101061.19;5117171;28;828;-59
2021/08/23 00:45:55;;;;;;;;;;;;;;;19.64;58.25;101054.06;5117155;28;831;-48
2021/08/23 00:48:20;;;;;;;;;;;;;;;19.72;57.71;101060.88;5116097;28;1139;-59
2021/08/23 00:50:46;;;;;;;;;;;;;;;19.65;58.13;101060.41;5116859;28;1586;-48
2021/08/23 00:53:11;;;;;;;;;;;;;;;19.69;57.90;101058.72;5098605;28;748;-59
2021/08/23 00:55:37;;;;;;;;;;;;;;;19.81;57.58;101053.69;5116362;28;763;-47
2021/08/23 00:58:02;;;;;;;;;;;;;;;19.72;57.75;101052.59;5116795;28;803;-59
2021/08/23 01:00:30;;;;;;;;;;;;;;;19.82;57.51;101057.25;5116767;28;1961;-55
2021/08/23 01:02:58;;;;;;;;;;;;;;;19.95;57.07;101053.00;5116284;28;962;-58
2021/08/23 01:05:30;;;;;;;;;;;;;;;19.65;57.94;101043.84;5116446;28;759;-58
2021/08/23 01:07:56;;;;;;;;;;;;;;;18.93;60.25;101047.06;5116681;28;1169;-58
2021/08/23 01:10:25;;;;;;;;;;;;;;;18.81;60.48;101048.16;5098575;28;811;-58
2021/08/23 01:12:50;;;;;;;;;;;;;;;18.50;61.57;101041.94;5117135;28;771;-57
2021/08/23 01:15:15;;;;;;;;;;;;;;;19.06;59.78;101051.94;5116640;28;957;-59
2021/08/23 01:17:41;;;;;;;;;;;;;;;19.38;58.99;101045.16;5115734;28;950;-60
2021/08/23 01:20:07;;;;;;;;;;;;;;;19.57;58.42;101053.56;5116481;28;1917;-59
2021/08/23 01:22:39;;;;;;;;;;;;;;;19.62;58.62;101047.19;5098335;28;1439;-55
2021/08/23 01:25:06;;;;;;;;;;;;;;;19.71;58.33;101047.38;5116130;28;755;-47
2021/08/23 01:27:33;;;;;;;;;;;;;;;19.67;58.62;101045.19;5116911;28;771;-59
2021/08/23 01:30:03;;;;;;;;;;;;;;;19.73;58.40;101039.66;5098299;28;866;-59
2021/08/23 01:32:28;;;;;;;;;;;;;;;18.97;61.14;101037.94;5098125;28;1633;-48
2021/08/23 01:34:54;;;;;;;;;;;;;;;18.76;61.85;101034.44;5098246;28;866;-58
2021/08/23 01:37:20;;;;;;;;;;;;;;;18.27;61.38;101037.88;5116358;28;774;-58
2021/08/23 01:39:45;;;;;;;;;;;;;;;19.38;60.42;101034.13;5101469;28;1913;-58
2021/08/23 01:42:11;;;;;;;;;;;;;;;19.62;60.37;101036.16;5120396;28;771;-58
2021/08/23 01:44:36;;;;;;;;;;;;;;;20.11;59.48;101035.19;5120318;28;787;-58
2021/08/23 01:47:02;;;;;;;;;;;;;;;20.10;60.55;101039.03;5119858;28;1002;-58
2021/08/23 01:49:27;;;;;;;;;;;;;;;19.40;63.40;101031.88;5120009;28;1606;-58
2021/08/23 01:51:53;;;;;;;;;;;;;;;19.19;64.62;101027.63;5119868;28;882;-58
2021/08/23 01:54:18;;;;;;;;;;;;;;;18.83;63.08;101027.78;5119808;28;806;-58
2021/08/23 01:56:43;;;;;;;;;;;;;;;19.63;61.96;101030.34;5119623;28;807;-58
2021/08/23 01:59:09;;;;;;;;;;;;;;;19.96;63.45;101027.88;5119697;28;823;-58
2021/08/23 02:01:34;;;;;;;;;;;;;;;20.22;62.40;101033.16;5119279;28;1914;-57
2021/08/23 02:04:00;;;;;;;;;;;;;;;20.66;61.24;101034.03;5119912;28;763;-59
2021/08/23 02:06:25;;;;;;;;;;;;;;;19.82;63.70;101026.91;5119791;28;755;-58
2021/08/23 02:08:51;;;;;;;;;;;;;;;19.48;65.23;101031.28;5119098;28;1026;-54
2021/08/23 02:11:17;;;;;;;;;;;;;;;19.22;64.21;101040.81;5120369;28;814;-48
2021/08/23 02:13:42;;;;;;;;;;;;;;;18.92;61.28;101037.16;5119356;28;756;-55
2021/08/23 02:16:08;;;;;;;;;;;;;;;19.55;63.41;101038.41;5119243;28;759;-55
2021/08/23 02:18:33;;;;;;;;;;;;;;;20.30;63.72;101037.19;5119236;28;958;-48
2021/08/23 02:20:59;;;;;;;;;;;;;;;20.44;63.47;101043.69;5119121;28;1976;-56
2021/08/23 02:23:24;;;;;;;;;;;;;;;20.70;62.33;101034.31;5119279;28;731;-48
2021/08/23 02:25:50;;;;;;;;;;;;;;;19.94;64.65;101035.63;5119287;28;759;-56
2021/08/23 02:28:15;;;;;;;;;;;;;;;19.75;65.42;101042.94;5119108;28;823;-56
2021/08/23 02:30:40;;;;;;;;;;;;;;;19.28;64.38;101032.25;5119129;28;763;-55
2021/08/23 02:33:06;;;;;;;;;;;;;;;18.88;62.31;101047.06;5119314;28;997;-55
2021/08/23 02:35:31;;;;;;;;;;;;;;;19.56;62.26;101043.63;5108211;28;1428;-53
2021/08/23 02:37:57;;;;;;;;;;;;;;;20.27;63.11;101043.31;5098475;28;752;-56
2021/08/23 02:40:22;;;;;;;;;;;;;;;20.50;64.29;101045.25;5116766;28;2041;-55
2021/08/23 02:42:48;;;;;;;;;;;;;;;20.52;62.99;101037.53;5118955;28;753;-56
2021/08/23 02:45:13;;;;;;;;;;;;;;;20.72;63.03;101041.19;5104013;28;826;-56
2021/08/23 02:47:39;;;;;;;;;;;;;;;19.95;65.53;101040.03;5110632;28;1009;-57
2021/08/23 02:50:05;;;;;;;;;;;;;;;19.85;66.34;101042.06;5117670;28;1787;-57
2021/08/23 02:52:31;;;;;;;;;;;;;;;19.91;62.39;101038.13;5118728;28;812;-56
2021/08/23 02:54:56;;;;;;;;;;;;;;;19.54;60.03;101042.28;5118900;28;855;-56
2021/08/23 02:57:21;;;;;;;;;;;;;;;20.23;61.48;101047.75;5118474;28;867;-45
2021/08/23 02:59:47;;;;;;;;;;;;;;;20.58;63.40;101054.84;5118320;28;1976;-56
2021/08/23 03:02:12;;;;;;;;;;;;;;;20.93;63.89;101052.81;5118557;28;958;-55
2021/08/23 03:04:38;;;;;;;;;;;;;;;20.76;63.64;101056.06;5118713;28;867;-52
2021/08/23 03:07:03;;;;;;;;;;;;;;;19.82;66.85;101055.34;5112757;28;1038;-57
2021/08/23 03:09:29;;;;;;;;;;;;;;;19.74;66.58;101050.41;5098117;28;815;-56
2021/08/23 03:11:54;;;;;;;;;;;;;;;19.38;63.86;101047.91;5102449;28;1337;-56
2021/08/23 03:14:19;;;;;;;;;;;;;;;19.36;62.15;101047.34;5116592;28;823;-57
2021/08/23 03:16:45;;;;;;;;;;;;;;;20.39;62.64;101054.78;5102108;28;994;-55
2021/08/23 03:19:10;;;;;;;;;;;;;;;20.61;64.16;101064.50;5118165;28;784;-56
2021/08/23 03:21:35;;;;;;;;;;;;;;;20.99;63.76;101059.91;5118304;28;1909;-56
2021/08/23 03:24:01;;;;;;;;;;;;;;;20.69;63.84;101069.38;5118260;28;811;-56
2021/08/23 03:26:26;;;;;;;;;;;;;;;19.80;66.95;101065.81;5117764;28;752;-56
2021/08/23 03:28:52;;;;;;;;;;;;;;;19.58;66.51;101063.47;5118636;28;785;-45
2021/08/23 03:31:18;;;;;;;;;;;;;;;19.24;63.13;101066.19;5105349;28;1365;-53
2021/08/23 03:33:43;;;;;;;;;;;;;;;19.29;59.57;101066.16;5117990;28;775;-56
2021/08/23 03:36:09;;;;;;;;;;;;;;;20.13;60.89;101060.56;5118514;28;830;-56
2021/08/23 03:38:34;;;;;;;;;;;;;;;20.63;62.05;101067.78;5105232;28;755;-46
2021/08/23 03:41:00;;;;;;;;;;;;;;;20.77;64.00;101079.78;5097450;28;1905;-51
2021/08/23 03:43:25;;;;;;;;;;;;;;;20.72;63.46;101071.59;5108628;28;1415;-57
2021/08/23 03:45:51;;;;;;;;;;;;;;;21.26;62.44;101079.72;5104698;28;811;-49
2021/08/23 03:48:16;;;;;;;;;;;;;;;20.11;66.21;101073.00;5116078;28;819;-55
2021/08/23 03:50:41;;;;;;;;;;;;;;;19.80;67.63;101073.28;5116678;28;1562;-55
2021/08/23 03:53:07;;;;;;;;;;;;;;;20.02;63.18;101070.06;5096769;28;828;-56
2021/08/23 03:55:32;;;;;;;;;;;;;;;19.77;59.76;101080.16;5097450;28;687;-52
2021/08/23 03:57:58;;;;;;;;;;;;;;;19.73;58.35;101076.34;5096804;28;820;-59
2021/08/23 04:00:23;;;;;;;;;;;;;;;19.86;59.43;101076.81;5096637;28;1905;-54
2021/08/23 04:02:49;;;;;;;;;;;;;;;19.75;58.42;101067.78;5110324;28;1105;-46
2021/08/23 04:05:14;;;;;;;;;;;;;;;20.12;56.95;101075.47;5117308;28;819;-47
2021/08/23 04:07:40;;;;;;;;;;;;;;;20.51;59.94;101077.31;5116538;28;1192;-62
2021/08/23 04:10:06;;;;;;;;;;;;;;;20.73;61.80;101073.22;5117470;28;755;-46
2021/08/23 04:12:31;;;;;;;;;;;;;;;20.77;63.76;101065.97;5117754;28;855;-55
2021/08/23 04:14:58;;;;;;;;;;;;;;;21.09;64.37;101077.47;5116940;28;807;-56
2021/08/23 04:17:24;;;;;;;;;;;;;;;20.49;66.68;101074.00;5116559;28;941;-56
2021/08/23 04:19:50;;;;;;;;;;;;;;;19.94;69.08;101076.22;5117058;28;1973;-58
2021/08/23 04:22:15;;;;;;;;;;;;;;;19.66;66.99;101078.59;5116817;28;485;-46
2021/08/23 04:24:40;;;;;;;;;;;;;;;19.02;61.20;101067.41;5117293;28;891;-63
2021/08/23 04:27:06;;;;;;;;;;;;;;;19.66;59.42;101064.81;5117306;28;795;-60
2021/08/23 04:29:31;;;;;;;;;;;;;;;19.62;58.83;101066.50;5116120;28;823;-60
2021/08/23 04:31:57;;;;;;;;;;;;;;;19.71;56.91;101072.22;5117018;28;922;-50
2021/08/23 04:34:23;;;;;;;;;;;;;;;19.21;55.92;101066.75;5117182;28;744;-58
2021/08/23 04:36:48;;;;;;;;;;;;;;;18.94;55.38;101071.59;5116609;28;846;-60
2021/08/23 04:39:13;;;;;;;;;;;;;;;19.16;54.26;101070.34;5116883;28;792;-61
2021/08/23 04:41:39;;;;;;;;;;;;;;;18.89;54.23;101065.28;5116918;28;1902;-49
2021/08/23 04:44:05;;;;;;;;;;;;;;;18.84;54.25;101070.75;5116264;28;775;-64
2021/08/23 04:46:30;;;;;;;;;;;;;;;18.94;54.66;101073.50;5116818;28;958;-60
2021/08/23 04:48:56;;;;;;;;;;;;;;;19.17;55.61;101071.16;5116656;28;1582;-57
2021/08/23 04:51:21;;;;;;;;;;;;;;;19.43;56.56;101061.66;5116522;28;776;-62
2021/08/23 04:53:47;;;;;;;;;;;;;;;19.67;57.13;101061.75;5117054;28;812;-60
2021/08/23 04:56:12;;;;;;;;;;;;;;;19.58;58.72;101059.91;5116717;28;842;-60
2021/08/23 04:58:39;;;;;;;;;;;;;;;19.83;58.69;101051.44;5116140;28;763;-59
2021/08/23 05:01:04;;;;;;;;;;;;;;;19.94;58.99;101054.94;5116846;28;1984;-61
2021/08/23 05:03:30;;;;;;;;;;;;;;;20.09;58.82;101061.44;5116553;28;963;-59
2021/08/23 05:05:55;;;;;;;;;;;;;;;20.09;59.29;101058.66;5116596;28;760;-53
2021/08/23 05:08:20;;;;;;;;;;;;;;;20.40;58.87;101064.72;5116127;28;1204;-56
2021/08/23 05:10:46;;;;;;;;;;;;;;;19.45;62.09;101067.69;5116433;28;832;-59
2021/08/23 05:13:12;;;;;;;;;;;;;;;19.47;63.23;101065.50;5118217;28;781;-56
2021/08/23 05:15:37;;;;;;;;;;;;;;;19.27;62.15;101073.88;5120778;28;767;-57
2021/08/23 05:18:02;;;;;;;;;;;;;;;19.37;60.42;101087.59;5120250;28;938;-57
2021/08/23 05:20:28;;;;;;;;;;;;;;;18.61;62.75;101075.81;5120137;28;1937;-50
2021/08/23 05:22:53;;;;;;;;;;;;;;;19.74;62.94;101069.72;5120806;28;728;-47
2021/08/23 05:25:19;;;;;;;;;;;;;;;20.30;63.34;101073.09;5121030;28;832;-46
2021/08/23 05:27:44;;;;;;;;;;;;;;;20.64;62.06;101077.72;5120163;28;795;-57
2021/08/23 05:30:10;;;;;;;;;;;;;;;20.76;61.67;101074.56;5120559;28;759;-59
2021/08/23 05:32:35;;;;;;;;;;;;;;;19.69;65.31;101066.97;5120405;28;981;-60
2021/08/23 05:35:00;;;;;;;;;;;;;;;19.66;65.64;101073.09;5119768;28;989;-61
2021/08/23 05:37:26;;;;;;;;;;;;;;;19.36;64.30;101072.16;5120524;28;826;-60
2021/08/23 05:39:51;;;;;;;;;;;;;;;19.25;63.75;101074.19;5120156;28;1972;-57
2021/08/23 05:42:17;;;;;;;;;;;;;;;18.97;64.39;101071.00;5120057;28;858;-59
2021/08/23 05:44:42;;;;;;;;;;;;;;;18.99;64.57;101065.22;5119884;28;1144;-63
2021/08/23 05:47:08;;;;;;;;;;;;;;;18.94;64.15;101062.47;5119500;28;811;-55
2021/08/23 05:49:34;;;;;;;;;;;;;;;19.19;64.41;101067.03;5119792;28;1601;-58
2021/08/23 05:52:00;;;;;;;;;;;;;;;20.34;63.77;101066.72;5120195;28;811;-63
2021/08/23 05:54:25;;;;;;;;;;;;;;;20.71;64.35;101063.59;5120005;28;815;-48
2021/08/23 05:56:52;;;;;;;;;;;;;;;21.03;64.26;101057.38;5119810;28;767;-60
2021/08/23 05:59:18;;;;;;;;;;;;;;;21.04;64.29;101061.75;5119497;28;847;-58
2021/08/23 06:01:43;;;;;;;;;;;;;;;20.41;65.71;101054.47;5119739;28;1979;-47
2021/08/23 06:04:09;;;;;;;;;;;;;;;20.12;66.59;101050.63;5120228;28;834;-62
2021/08/23 06:06:37;;;;;;;;;;;;;;;19.77;64.95;101051.75;5119563;28;1433;-64
2021/08/23 06:09:03;;;;;;;;;;;;;;;19.55;59.69;101049.44;5119388;28;763;-63
2021/08/23 06:11:28;;;;;;;;;;;;;;;20.16;61.14;101043.41;5119786;28;842;-58
2021/08/23 06:13:53;;;;;;;;;;;;;;;20.63;63.02;101051.19;5119249;28;858;-45
2021/08/23 06:16:22;;;;;;;;;;;;;;;20.83;64.61;101044.63;5119318;28;1038;-59
2021/08/23 06:18:47;;;;;;;;;;;;;;;21.06;64.98;101048.47;5119355;28;1161;-62
2021/08/23 06:21:13;;;;;;;;;;;;;;;20.51;66.20;101049.69;5118977;28;1914;-52
2021/08/23 06:23:38;;;;;;;;;;;;;;;19.84;66.71;101052.28;5119290;28;823;-61
2021/08/23 06:26:04;;;;;;;;;;;;;;;19.98;65.46;101049.69;5117985;28;843;-46
2021/08/23 06:28:29;;;;;;;;;;;;;;;20.04;60.08;101045.75;5119080;28;783;-49
2021/08/23 06:30:54;;;;;;;;;;;;;;;20.35;55.21;101048.19;5119123;28;739;-45
2021/08/23 06:33:23;;;;;;;;;;;;;;;20.40;60.15;101042.63;5119174;28;926;-49
2021/08/23 06:35:48;;;;;;;;;;;;;;;20.81;62.85;101047.69;5100651;28;1455;-53
2021/08/23 06:38:14;;;;;;;;;;;;;;;21.02;64.88;101048.22;5118749;28;875;-61
2021/08/23 06:40:42;;;;;;;;;;;;;;;20.95;65.57;101045.03;5118811;28;1902;-53
2021/08/23 06:43:08;;;;;;;;;;;;;;;20.81;67.76;101046.88;5118371;28;1026;-52
2021/08/23 06:45:33;;;;;;;;;;;;;;;19.64;65.25;101054.06;5119077;28;852;-45
2021/08/23 06:47:58;;;;;;;;;;;;;;;18.93;60.00;101044.31;5118779;28;965;-48
2021/08/23 06:50:25;;;;;;;;;;;;;;;19.12;60.40;101050.78;5118599;28;1621;-61
2021/08/23 06:52:50;;;;;;;;;;;;;;;18.83;60.45;101050.66;5118666;28;760;-60
2021/08/23 06:55:16;;;;;;;;;;;;;;;18.90;60.06;101055.88;5119172;28;768;-64
2021/08/23 06:57:41;;;;;;;;;;;;;;;19.06;59.58;101049.19;5118271;28;828;-58
2021/08/23 07:00:07;;;;;;;;;;;;;;;19.36;58.73;101043.78;5118632;28;1953;-53
2021/08/23 07:02:33;;;;;;;;;;;;;;;19.47;59.11;101040.69;5100379;28;1368;-61
2021/08/23 07:04:58;;;;;;;;;;;;;;;19.69;59.17;101041.34;5118093;28;924;-62
2021/08/23 07:07:24;;;;;;;;;;;;;;;19.74;59.49;101052.31;5118354;28;1039;-48
2021/08/23 07:09:50;;;;;;;;;;;;;;;19.91;59.39;101050.00;5118761;28;831;-46
2021/08/23 07:12:16;;;;;;;;;;;;;;;20.02;59.24;101053.50;5118088;28;1010;-62
2021/08/23 07:14:41;;;;;;;;;;;;;;;20.16;59.06;101054.47;5118579;28;855;-59
2021/08/23 07:17:07;;;;;;;;;;;;;;;19.60;60.98;101052.16;5118155;28;935;-53
2021/08/23 07:19:32;;;;;;;;;;;;;;;19.36;61.84;101050.09;5114870;28;1902;-55
2021/08/23 07:21:57;;;;;;;;;;;;;;;19.06;61.79;101051.13;5117014;28;831;-52
2021/08/23 07:24:23;;;;;;;;;;;;;;;18.83;60.31;101047.06;5117884;28;1189;-48
2021/08/23 07:26:49;;;;;;;;;;;;;;;19.41;63.00;101041.81;5117807;28;740;-48
2021/08/23 07:29:14;;;;;;;;;;;;;;;20.19;61.51;101036.50;5116749;28;840;-49
2021/08/23 07:31:40;;;;;;;;;;;;;;;20.67;61.38;101036.53;5117419;28;958;-49
2021/08/23 07:34:05;;;;;;;;;;;;;;;20.11;64.75;101042.66;5117743;28;996;-51
2021/08/23 07:36:31;;;;;;;;;;;;;;;20.02;65.94;101042.47;5117777;28;746;-50
2021/08/23 07:38:56;;;;;;;;;;;;;;;19.71;63.38;101053.72;5117556;28;819;-53
2021/08/23 07:41:24;;;;;;;;;;;;;;;19.56;59.54;101045.56;5117220;28;1913;-60
2021/08/23 07:43:50;;;;;;;;;;;;;;;19.97;60.72;101045.25;5100167;28;1062;-65
2021/08/23 07:46:15;;;;;;;;;;;;;;;20.37;62.23;101054.25;5097347;28;989;-62
2021/08/23 07:48:42;;;;;;;;;;;;;;;20.49;63.14;101060.19;5117390;28;1597;-64
2021/08/23 07:51:08;;;;;;;;;;;;;;;20.39;62.76;101063.06;5117507;28;883;-63
2021/08/23 07:53:33;;;;;;;;;;;;;;;20.36;61.90;101052.59;5117825;28;780;-54
2021/08/23 07:55:59;;;;;;;;;;;;;;;20.15;61.32;101052.81;5105048;28;823;-63
2021/08/23 07:58:24;;;;;;;;;;;;;;;20.05;60.41;101055.69;5096946;28;851;-50
2021/08/23 08:00:49;;;;;;;;;;;;;;;19.46;61.62;101052.81;5100957;28;1972;-61
2021/08/23 08:03:15;;;;;;;;;;;;;;;19.40;61.36;101048.41;5116896;28;946;-59
2021/08/23 08:05:40;;;;;;;;;;;;;;;18.79;60.67;101055.91;5117153;28;831;-56
2021/08/23 08:08:06;;;;;;;;;;;;;;;19.19;61.71;101061.50;5110874;28;1110;-58
2021/08/23 08:10:32;;;;;;;;;;;;;;;19.60;60.45;101061.25;5096736;28;863;-58
2021/08/23 08:12:57;;;;;;;;;;;;;;;19.77;59.72;101058.09;5096531;28;808;-56
2021/08/23 08:15:23;;;;;;;;;;;;;;;19.36;60.97;101055.63;5096959;28;827;-58
2021/08/23 08:17:48;;;;;;;;;;;;;;;19.42;60.97;101059.16;5109526;28;1001;-58
2021/08/23 08:20:13;;;;;;;;;;;;;;;19.06;60.70;101065.72;5117009;28;1913;-48
2021/08/23 08:22:39;;;;;;;;;;;;;;;18.72;62.54;101055.38;5095491;28;1013;-61
2021/08/23 08:25:05;;;;;;;;;;;;;;;19.52;62.04;101055.50;5096685;28;735;-63
2021/08/23 08:27:30;;;;;;;;;;;;;;;20.13;62.38;101052.28;5096513;28;748;-62
2021/08/23 08:29:55;;;;;;;;;;;;;;;20.00;64.75;101048.25;5096835;28;795;-61
2021/08/23 08:32:21;;;;;;;;;;;;;;;20.07;65.74;101050.69;5105409;28;938;-60
2021/08/23 08:34:46;;;;;;;;;;;;;;;19.58;62.95;101048.88;5115614;28;879;-58
2021/08/23 08:37:12;;;;;;;;;;;;;;;18.78;60.25;101047.91;5116908;28;803;-49
2021/08/23 08:39:37;;;;;;;;;;;;;;;19.33;60.83;101036.91;5116335;28;1963;-60
2021/08/23 08:42:03;;;;;;;;;;;;;;;19.61;61.24;101040.81;5116302;28;799;-56
2021/08/23 08:44:28;;;;;;;;;;;;;;;19.20;61.62;101043.06;5117134;28;858;-60
2021/08/23 08:46:54;;;;;;;;;;;;;;;19.42;59.29;101035.19;5111705;28;843;-48
2021/08/23 08:49:20;;;;;;;;;;;;;;;19.29;58.57;101038.56;5115854;28;1589;-61
2021/08/23 08:51:45;;;;;;;;;;;;;;;19.34;57.50;101038.53;5098719;28;780;-62
2021/08/23 08:54:11;;;;;;;;;;;;;;;19.25;57.02;101030.06;5116581;28;795;-61
2021/08/23 08:56:36;;;;;;;;;;;;;;;19.22;56.64;101027.03;5116447;28;815;-60
2021/08/23 08:59:02;;;;;;;;;;;;;;;19.19;56.16;101030.38;5111895;28;820;-60
2021/08/23 09:01:27;;;;;;;;;;;;;;;19.24;55.85;101022.09;5097874;28;1910;-56
2021/08/23 09:03:53;;;;;;;;;;;;;;;19.14;55.69;101025.72;5116254;28;783;-57
2021/08/23 09:06:19;;;;;;;;;;;;;;;19.23;55.32;101012.16;5116568;28;747;-58
2021/08/23 09:08:46;;;;;;;;;;;;;;;19.26;55.24;101023.41;5116286;28;1137;-57
2021/08/23 09:11:12;;;;;;;;;;;;;;;19.30;55.15;101018.16;5116445;28;743;-57
2021/08/23 09:13:38;;;;;;;;;;;;;;;19.21;56.17;101023.47;5114988;28;880;-58
2021/08/23 09:16:03;;;;;;;;;;;;;;;19.35;57.00;101026.41;5116804;28;820;-58
2021/08/23 09:18:29;;;;;;;;;;;;;;;19.66;57.40;101035.28;5115420;28;958;-57
2021/08/23 09:20:55;;;;;;;;;;;;;;;19.70;58.05;101024.50;5116374;28;1975;-58
2021/08/23 09:23:20;;;;;;;;;;;;;;;19.61;58.99;101031.72;5116271;28;802;-58
2021/08/23 09:25:46;;;;;;;;;;;;;;;19.50;60.18;101033.75;5097483;28;821;-58
2021/08/23 09:28:11;;;;;;;;;;;;;;;19.32;59.86;101024.22;5116197;28;799;-58
2021/08/23 09:30:37;;;;;;;;;;;;;;;18.81;60.68;101022.56;5116396;28;786;-58
2021/08/23 09:33:04;;;;;;;;;;;;;;;19.65;61.31;101024.53;5115456;28;998;-58
2021/08/23 09:35:30;;;;;;;;;;;;;;;20.04;59.90;101015.38;5116226;28;815;-58
2021/08/23 09:37:56;;;;;;;;;;;;;;;19.91;60.39;101016.03;5115216;28;875;-58
2021/08/23 09:40:26;;;;;;;;;;;;;;;19.57;61.44;101012.19;5115972;28;2043;-58
2021/08/23 09:42:58;;;;;;;;;;;;;;;19.50;61.82;101014.44;5115836;28;802;-58
2021/08/23 09:45:24;;;;;;;;;;;;;;;19.38;60.42;101017.56;5116305;28;748;-58
2021/08/23 09:47:57;;;;;;;;;;;;;;;18.94;59.11;101010.13;5115559;28;945;-59
2021/08/23 09:50:23;;;;;;;;;;;;;;;19.61;62.02;101007.72;5109657;28;1522;-58
2021/08/23 09:52:48;;;;;;;;;;;;;;;20.16;62.42;101015.81;5095476;28;827;-59
2021/08/23 09:55:14;;;;;;;;;;;;;;;20.93;61.36;101013.25;5095423;28;764;-58
2021/08/23 09:57:41;;;;;;;;;;;;;;;20.34;64.47;101016.16;5095754;28;791;-59
2021/08/23 10:00:08;;;;;;;;;;;;;;;20.11;66.15;101015.03;5104047;28;1992;-60
2021/08/23 10:02:37;;;;;;;;;;;;;;;19.69;62.45;101011.00;5117544;28;1201;-50
2021/08/23 10:05:02;;;;;;;;;;;;;;;19.38;59.32;101017.56;5099946;28;1086;-53
2021/08/23 10:07:29;;;;;;;;;;;;;;;19.88;59.35;101020.22;5119725;28;1150;-56
2021/08/23 10:10:01;;;;;;;;;;;;;;;20.26;61.64;101016.81;5119475;28;823;-58
2021/08/23 10:12:28;;;;;;;;;;;;;;;20.48;62.35;101016.28;5119692;28;800;-59
2021/08/23 10:14:53;;;;;;;;;;;;;;;20.28;63.13;101020.09;5119288;28;910;-55
2021/08/23 10:17:20;;;;;;;;;;;;;;;20.46;62.24;101011.06;5109127;28;879;-58
2021/08/23 10:19:46;;;;;;;;;;;;;;;20.34;61.29;101007.88;5117626;28;1901;-57
2021/08/23 10:22:11;;;;;;;;;;;;;;;20.17;60.53;101011.94;5100906;28;979;-59
2021/08/23 10:24:38;;;;;;;;;;;;;;;19.64;61.60;101011.84;5112419;28;1239;-60
2021/08/23 10:27:04;;;;;;;;;;;;;;;19.61;60.50;100998.63;5110658;28;966;-62
2021/08/23 10:29:39;;;;;;;;;;;;;;;19.09;58.99;101006.47;5098824;28;807;-61
2021/08/23 10:32:10;;;;;;;;;;;;;;;19.40;61.63;101009.00;5112373;28;1139;-60
2021/08/23 10:34:37;;;;;;;;;;;;;;;19.93;60.11;101005.56;5118942;28;823;-62
2021/08/23 10:37:03;;;;;;;;;;;;;;;19.92;59.98;101004.75;5119478;28;752;-62
2021/08/23 10:39:29;;;;;;;;;;;;;;;20.06;59.41;101009.56;5098272;28;1376;-61
2021/08/23 10:41:54;;;;;;;;;;;;;;;19.59;61.03;101000.88;5098639;28;1913;-57
2021/08/23 10:44:24;;;;;;;;;;;;;;;19.54;61.07;100998.16;5113138;28;1087;-49
2021/08/23 10:46:49;;;;;;;;;;;;;;;18.93;59.85;100994.72;5118293;28;756;-58
2021/08/23 10:49:15;;;;;;;;;;;;;;;19.37;61.19;101001.31;5118396;28;1538;-58
2021/08/23 10:51:42;;;;;;;;;;;;;;;19.73;61.44;100996.31;5118940;28;791;-57
2021/08/23 10:54:20;;;;;;;;;;;;;;;19.86;60.79;100988.53;5100800;28;855;-60
2021/08/23 10:56:45;;;;;;;;;;;;;;;19.85;60.96;100987.69;5118749;28;782;-59
2021/08/23 10:59:12;;;;;;;;;;;;;;;19.59;61.78;100984.31;5118523;28;848;-59
2021/08/23 11:01:38;;;;;;;;;;;;;;;19.68;60.94;100977.03;5117756;28;1917;-57
2021/08/23 11:04:04;;;;;;;;;;;;;;;18.85;60.98;100982.31;5099903;28;872;-59
2021/08/23 11:06:32;;;;;;;;;;;;;;;19.64;61.70;100981.50;5115313;28;839;-60
2021/08/23 11:09:10;;;;;;;;;;;;;;;20.20;60.93;100982.91;5117859;28;1016;-61
2021/08/23 11:11:39;;;;;;;;;;;;;;;20.42;59.61;100979.63;5097103;28;886;-62
2021/08/23 11:14:17;;;;;;;;;;;;;;;19.82;61.56;100971.72;5097721;28;822;-61
2021/08/23 11:16:49;;;;;;;;;;;;;;;19.78;61.70;100971.44;5097395;28;843;-60
2021/08/23 11:19:15;;;;;;;;;;;;;;;19.06;61.53;100958.22;5097703;28;870;-61
2021/08/23 11:21:47;;;;;;;;;;;;;;;18.68;60.00;100960.63;5100138;28;1982;-60
2021/08/23 11:24:12;;;;;;;;;;;;;;;19.80;61.94;100962.91;5117575;28;938;-61
2021/08/23 11:26:37;;;;;;;;;;;;;;;19.93;62.16;100966.91;5099570;28;1281;-60
2021/08/23 11:29:09;;;;;;;;;;;;;;;20.36;60.50;100961.47;5117737;28;748;-48
2021/08/23 11:31:34;;;;;;;;;;;;;;;20.44;60.00;100957.22;5116797;28;913;-59
2021/08/23 11:34:02;;;;;;;;;;;;;;;20.40;59.69;100965.28;5117756;28;787;-54
2021/08/23 11:36:28;;;;;;;;;;;;;;;19.69;62.23;100964.09;5117749;28;791;-60
2021/08/23 11:38:53;;;;;;;;;;;;;;;19.65;62.05;100966.59;5117555;28;764;-54
2021/08/23 11:41:19;;;;;;;;;;;;;;;18.88;60.54;100956.97;5117273;28;1970;-60
2021/08/23 11:43:44;;;;;;;;;;;;;;;18.95;60.38;100962.16;5098423;28;1476;-59
2021/08/23 11:46:10;;;;;;;;;;;;;;;19.97;62.00;100952.22;5117472;28;801;-56
2021/08/23 11:48:35;;;;;;;;;;;;;;;20.85;61.62;100953.94;5099055;28;1542;-61
2021/08/23 11:51:02;;;;;;;;;;;;;;;20.72;62.88;100946.38;5117480;28;874;-61
2021/08/23 11:53:31;;;;;;;;;;;;;;;20.29;65.27;100952.72;5099274;28;829;-62
2021/08/23 11:56:04;;;;;;;;;;;;;;;20.13;64.19;100949.31;5098637;28;1010;-61
2021/08/23 11:58:34;;;;;;;;;;;;;;;19.19;60.22;100936.66;5096416;28;1054;-61
2021/08/23 12:01:01;;;;;;;;;;;;;;;19.51;60.63;100947.13;5078553;28;1973;-61
2021/08/23 12:03:27;;;;;;;;;;;;;;;19.62;61.80;100936.84;5097002;28;740;-60
2021/08/23 12:06:00;;;;;;;;;;;;;;;20.03;60.65;100939.19;5097127;28;747;-59
2021/08/23 12:08:30;;;;;;;;;;;;;;;20.18;58.92;100941.78;5096118;28;1031;-58
2021/08/23 12:10:56;;;;;;;;;;;;;;;19.76;59.13;100940.56;5110989;28;828;-58
2021/08/23 12:13:26;;;;;;;;;;;;;;;19.97;57.36;100946.72;5117345;28;790;-48
2021/08/23 12:15:52;;;;;;;;;;;;;;;19.76;57.52;100936.97;5116389;28;815;-58
2021/08/23 12:18:18;;;;;;;;;;;;;;;19.90;56.81;100937.16;5117026;28;752;-57
2021/08/23 12:20:43;;;;;;;;;;;;;;;19.64;56.97;100938.19;5116963;28;1982;-58
2021/08/23 12:23:08;;;;;;;;;;;;;;;19.55;57.08;100934.41;5102696;28;824;-58
2021/08/23 12:25:34;;;;;;;;;;;;;;;19.55;56.88;100933.59;5108651;28;997;-58
2021/08/23 12:27:59;;;;;;;;;;;;;;;19.35;57.39;100935.44;5116808;28;803;-57
2021/08/23 12:30:28;;;;;;;;;;;;;;;19.09;57.32;100923.78;5116570;28;523;-59
2021/08/23 12:32:54;;;;;;;;;;;;;;;18.41;59.69;100930.75;5116920;28;558;-58
2021/08/23 12:35:29;;;;;;;;;;;;;;;19.26;57.38;100937.16;5115780;28;879;-53
2021/08/23 12:37:55;;;;;;;;;;;;;;;19.25;57.63;100935.50;5116200;28;811;-58
2021/08/23 12:40:20;;;;;;;;;;;;;;;19.55;57.58;100933.59;5116517;28;1913;-58
2021/08/23 12:42:50;;;;;;;;;;;;;;;19.73;57.54;100938.38;5116565;28;847;-47
2021/08/23 12:45:15;;;;;;;;;;;;;;;19.95;57.46;100931.56;5116251;28;799;-57
2021/08/23 12:47:41;;;;;;;;;;;;;;;19.66;58.78;100937.91;5115481;28;847;-60